createdAt,value
2023-02-05T00:00:42.958Z,99966.84
2023-02-05T00:04:44.953Z,99973.91
2023-02-05T00:08:47.152Z,99965.31
2023-02-05T00:12:49.196Z,99959.28
2023-02-05T00:16:51.876Z,99961.03
2023-02-05T00:20:53.862Z,99962.78
2023-02-05T00:24:55.862Z,99962.03
2023-02-05T00:28:57.948Z,99963.03
2023-02-05T00:32:59.964Z,99943.97
2023-02-05T00:37:01.974Z,99940.38
2023-02-05T00:41:04.660Z,99936.84
2023-02-05T00:45:07.164Z,99945.38
2023-02-05T00:49:09.177Z,99948.78
2023-02-05T00:53:11.166Z,99936.69
2023-02-05T00:57:13.162Z,99929.91
2023-02-05T01:01:15.910Z,99922.22
2023-02-05T01:05:17.978Z,99920.53
2023-02-05T01:09:22.575Z,99907.63
2023-02-05T01:13:24.755Z,99899.88
2023-02-05T01:17:27.305Z,99899.88
2023-02-05T01:21:29.372Z,99896.47
2023-02-05T01:25:31.882Z,99892.19
2023-02-05T01:29:34.036Z,99897.44
2023-02-05T01:33:36.068Z,99896.56
2023-02-05T01:37:38.210Z,99880.97
2023-02-05T01:41:42.741Z,99871.44
2023-02-05T01:45:52.901Z,99874.03
2023-02-05T01:49:55.256Z,99875.81
2023-02-05T01:53:57.482Z,99870.53
2023-02-05T01:58:01.382Z,99868.81
2023-02-05T02:02:06.477Z,99863.56
2023-02-05T02:06:09.779Z,99850.53
2023-02-05T02:10:15.211Z,99850.50
2023-02-05T02:14:17.922Z,99849.50
2023-02-05T02:18:26.455Z,99836.56
2023-02-05T02:23:03.567Z,99827.00
2023-02-05T02:27:28.254Z,99826.16
2023-02-05T02:31:44.072Z,99819.19
2023-02-05T02:36:01.219Z,99804.50
2023-02-05T02:40:16.041Z,99817.44
2023-02-05T02:44:36.901Z,99798.44
2023-02-05T02:48:41.594Z,99794.03
2023-02-05T02:52:47.022Z,99793.13
2023-02-05T02:56:51.309Z,99780.97
2023-02-05T03:00:55.185Z,99795.72
2023-02-05T03:05:01.623Z,99793.22
2023-02-05T03:09:11.919Z,99794.91
2023-02-05T03:13:13.948Z,99791.38
2023-02-05T03:17:22.707Z,99790.53
2023-02-05T03:21:30.426Z,99780.16
2023-02-05T03:25:33.042Z,99772.38
2023-02-05T03:29:44.406Z,99771.53
2023-02-05T03:34:22.182Z,99769.84
2023-02-05T03:38:39.975Z,99768.13
2023-02-05T03:43:11.959Z,99770.72
2023-02-05T03:47:30.216Z,99788.88
2023-02-05T03:51:48.977Z,99790.63
2023-02-05T03:56:16.584Z,99797.56
2023-02-05T04:00:20.272Z,99788.94
2023-02-05T04:04:27.347Z,99789.00
2023-02-05T04:08:31.016Z,99776.97
2023-02-05T04:12:33.132Z,99778.72
2023-02-05T04:16:35.480Z,99781.31
2023-02-05T04:20:38.813Z,99769.25
2023-02-05T04:24:42.881Z,99771.91
2023-02-05T04:28:45.496Z,99771.91
2023-02-05T04:32:47.825Z,99750.28
2023-02-05T04:36:52.168Z,99743.41
2023-02-05T04:40:54.605Z,99735.66
2023-02-05T04:44:56.674Z,99727.88
2023-02-05T04:48:58.681Z,99728.72
2023-02-05T04:53:02.204Z,99731.34
2023-02-05T04:57:04.249Z,99733.16
2023-02-05T05:01:13.418Z,99749.63
2023-02-05T05:05:15.836Z,99750.53
2023-02-05T05:09:20.658Z,99757.53
2023-02-05T05:13:22.674Z,99763.59
2023-02-05T05:17:24.687Z,99764.44
2023-02-05T05:21:26.666Z,99773.09
2023-02-05T05:25:28.719Z,99762.75
2023-02-05T05:29:30.748Z,99768.81
2023-02-05T05:33:32.833Z,99765.34
2023-02-05T05:37:34.836Z,99767.94
2023-02-05T05:41:55.488Z,99767.91
2023-02-05T05:45:57.541Z,99761.88
2023-02-05T05:49:59.575Z,99762.69
2023-02-05T05:54:01.628Z,99775.56
2023-02-05T05:58:04.062Z,99770.34
2023-02-05T06:02:06.807Z,99773.53
2023-02-05T06:06:11.926Z,99770.72
2023-02-05T06:10:13.982Z,99767.09
2023-02-05T06:14:16.278Z,99766.97
2023-02-05T06:18:18.894Z,99754.06
2023-02-05T06:22:20.898Z,99755.91
2023-02-05T06:26:23.004Z,99749.09
2023-02-05T06:30:25.244Z,99760.41
2023-02-05T06:34:27.296Z,99750.16
2023-02-05T06:38:29.305Z,99753.66
2023-02-05T06:42:31.594Z,99743.38
2023-02-05T06:46:33.685Z,99739.13
2023-02-05T06:50:35.676Z,99750.38
2023-02-05T06:54:38.833Z,99755.56
2023-02-05T06:58:40.853Z,99752.13
2023-02-05T07:02:43.291Z,99731.34
2023-02-05T07:06:45.364Z,99741.59
2023-02-05T07:10:47.472Z,99745.84
2023-02-05T07:14:49.481Z,99731.09
2023-02-05T07:18:52.933Z,99718.03
2023-02-05T07:22:54.913Z,99698.97
2023-02-05T07:26:56.927Z,99702.41
2023-02-05T07:31:11.529Z,99697.25
2023-02-05T07:35:13.632Z,99716.31
2023-02-05T07:39:15.950Z,99731.06
2023-02-05T07:43:17.949Z,99730.16
2023-02-05T07:47:20.043Z,99709.44
2023-02-05T07:51:24.245Z,99718.97
2023-02-05T07:55:26.249Z,99706.84
2023-02-05T07:59:28.356Z,99699.06
2023-02-05T08:03:31.258Z,99696.50
2023-02-05T08:07:33.510Z,99706.00
2023-02-05T08:11:35.526Z,99694.78
2023-02-05T08:15:40.964Z,99681.81
2023-02-05T08:19:42.952Z,99684.44
2023-02-05T08:23:45.043Z,99687.94
2023-02-05T08:27:48.008Z,99699.41
2023-02-05T08:31:50.168Z,99689.88
2023-02-05T08:35:52.305Z,99695.97
2023-02-05T08:39:54.318Z,99696.81
2023-02-05T08:43:56.588Z,99689.88
2023-02-05T08:47:58.670Z,99680.41
2023-02-05T08:52:00.847Z,99686.47
2023-02-05T08:56:03.848Z,99670.84
2023-02-05T09:00:07.487Z,99673.50
2023-02-05T09:04:17.193Z,99679.56
2023-02-05T09:08:20.306Z,99660.56
2023-02-05T09:12:22.345Z,99671.03
2023-02-05T09:16:25.554Z,99674.56
2023-02-05T09:20:27.654Z,99680.63
2023-02-05T09:24:29.785Z,99670.22
2023-02-05T09:28:31.812Z,99671.13
2023-02-05T09:32:33.828Z,99659.88
2023-02-05T09:36:35.896Z,99654.66
2023-02-05T09:40:56.493Z,99646.03
2023-02-05T09:45:05.702Z,99649.53
2023-02-05T09:49:17.652Z,99636.53
2023-02-05T09:53:22.556Z,99628.78
2023-02-05T09:57:38.118Z,99630.53
2023-02-05T10:01:46.072Z,99629.66
2023-02-05T10:06:09.506Z,99635.69
2023-02-05T10:10:25.821Z,99634.75
2023-02-05T10:15:05.183Z,99632.97
2023-02-05T10:19:16.090Z,99636.38
2023-02-05T10:23:45.131Z,99620.00
2023-02-05T10:28:00.777Z,99619.19
2023-02-05T10:32:15.168Z,99610.56
2023-02-05T10:36:21.911Z,99621.00
2023-02-05T10:40:29.412Z,99612.34
2023-02-05T10:44:36.314Z,99608.00
2023-02-05T10:48:42.102Z,99609.72
2023-02-05T10:52:45.592Z,99608.03
2023-02-05T10:56:47.903Z,99595.00
2023-02-05T11:00:50.299Z,99596.72
2023-02-05T11:04:59.340Z,99591.47
2023-02-05T11:09:01.373Z,99594.06
2023-02-05T11:13:20.072Z,99592.31
2023-02-05T11:17:25.056Z,99591.50
2023-02-05T11:22:05.904Z,99586.31
2023-02-05T11:26:16.967Z,99585.47
2023-02-05T11:34:50.106Z,99567.25
2023-02-05T11:38:57.093Z,99568.13
2023-02-05T11:43:31.287Z,99562.03
2023-02-05T11:47:39.956Z,99577.66
2023-02-05T11:51:45.712Z,99561.19
2023-02-05T11:55:55.167Z,99565.50
2023-02-05T12:00:18.130Z,99563.78
2023-02-05T12:04:21.536Z,99558.56
2023-02-05T12:08:48.063Z,99560.31
2023-02-05T12:13:01.779Z,99564.63
2023-02-05T12:17:14.815Z,99565.50
2023-02-05T12:21:42.479Z,99566.41
2023-02-05T12:26:02.640Z,99562.94
2023-02-05T12:30:26.624Z,99565.50
2023-02-05T12:34:41.511Z,99548.13
2023-02-05T12:39:22.797Z,99560.25
2023-02-05T12:43:40.902Z,99547.22
2023-02-05T12:48:02.692Z,99555.03
2023-02-05T12:52:31.747Z,99567.19
2023-02-05T12:56:49.206Z,99551.56
2023-02-05T13:00:57.125Z,99554.19
2023-02-05T13:05:36.998Z,99546.38
2023-02-05T13:09:53.605Z,99550.72
2023-02-05T13:14:12.390Z,99552.44
2023-02-05T13:18:22.916Z,99540.31
2023-02-05T13:22:55.187Z,99554.25
2023-02-05T13:27:16.223Z,99550.72
2023-02-05T13:31:24.680Z,99542.06
2023-02-05T13:35:31.397Z,99534.25
2023-02-05T13:39:34.577Z,99535.97
2023-02-05T13:43:45.775Z,99544.59
2023-02-05T13:48:06.771Z,99541.97
2023-02-05T13:52:18.597Z,99545.44
2023-02-05T13:56:38.808Z,99553.31
2023-02-05T14:00:44.490Z,99555.06
2023-02-05T14:04:53.914Z,99551.63
2023-02-05T14:09:09.584Z,99569.84
2023-02-05T14:13:32.463Z,99570.72
2023-02-05T14:17:37.546Z,99581.13
2023-02-05T14:21:45.516Z,99582.00
2023-02-05T14:26:02.809Z,99583.75
2023-02-05T14:30:33.312Z,99581.13
2023-02-05T14:34:35.227Z,99586.34
2023-02-05T14:38:39.538Z,99598.50
2023-02-05T14:42:42.853Z,99608.94
2023-02-05T14:47:04.950Z,99600.25
2023-02-05T14:51:45.533Z,99615.84
2023-02-05T14:55:49.902Z,99609.78
2023-02-05T15:00:07.216Z,99619.31
2023-02-05T15:04:43.178Z,99628.00
2023-02-05T15:08:52.857Z,99637.47
2023-02-05T15:13:15.181Z,99648.75
2023-02-05T15:17:17.409Z,99659.16
2023-02-05T15:21:43.136Z,99662.59
2023-02-05T15:26:00.479Z,99671.97
2023-02-05T15:30:05.751Z,99670.94
2023-02-05T15:34:39.962Z,99678.66
2023-02-05T15:38:49.058Z,99674.28
2023-02-05T15:43:00.903Z,99673.38
2023-02-05T15:47:07.776Z,99677.69
2023-02-05T15:51:27.055Z,99686.41
2023-02-05T15:55:29.447Z,99693.25
2023-02-05T15:59:32.628Z,99694.00
2023-02-05T16:03:36.280Z,99684.47
2023-02-05T16:07:43.392Z,99697.41
2023-02-05T16:11:46.329Z,99706.91
2023-02-05T16:16:18.938Z,99731.13
2023-02-05T16:20:29.274Z,99732.81
2023-02-05T16:24:41.218Z,99744.84
2023-02-05T16:28:48.677Z,99756.09
2023-02-05T16:32:53.787Z,99768.31
2023-02-05T16:37:00.354Z,99764.94
2023-02-05T16:41:22.705Z,99773.66
2023-02-05T16:45:25.741Z,99778.81
2023-02-05T16:49:29.276Z,99764.97
2023-02-05T16:53:34.406Z,99784.88
2023-02-05T16:57:39.092Z,99765.81
2023-02-05T17:01:43.938Z,99784.97
2023-02-05T17:05:54.093Z,99775.44
2023-02-05T17:10:09.577Z,99801.56
2023-02-05T17:14:29.321Z,99808.53
2023-02-05T17:18:34.108Z,99822.38
2023-02-05T17:22:36.295Z,99818.97
2023-02-05T17:26:40.873Z,99821.63
2023-02-05T17:30:44.741Z,99828.53
2023-02-05T17:34:47.903Z,99819.84
2023-02-05T17:38:50.611Z,99834.59
2023-02-05T17:42:52.736Z,99844.09
2023-02-05T17:46:54.905Z,99844.94
2023-02-05T17:50:59.165Z,99847.47
2023-02-05T17:55:01.221Z,99853.50
2023-02-05T17:59:03.223Z,99857.00
2023-02-05T18:03:05.223Z,99870.00
2023-02-05T18:07:19.643Z,99862.19
2023-02-05T18:11:21.649Z,99870.00
2023-02-05T18:15:25.162Z,99875.16
2023-02-05T18:19:29.297Z,99886.41
2023-02-05T18:23:31.487Z,99879.50
2023-02-05T18:27:33.609Z,99879.50
2023-02-05T18:31:35.978Z,99868.25
2023-02-05T18:35:38.006Z,99881.25
2023-02-05T18:39:39.987Z,99894.22
2023-02-05T18:43:42.599Z,99897.72
2023-02-05T18:47:44.713Z,99902.94
2023-02-05T18:51:46.692Z,99906.31
2023-02-05T18:55:59.564Z,99894.22
2023-02-05T19:00:01.572Z,99897.75
2023-02-05T19:04:13.081Z,99889.03
2023-02-05T19:08:15.101Z,99889.00
2023-02-05T19:12:18.801Z,99892.34
2023-02-05T19:16:20.771Z,99906.19
2023-02-05T19:20:22.861Z,99919.19
2023-02-05T19:24:24.828Z,99923.44
2023-02-05T19:28:26.799Z,99932.13
2023-02-05T19:32:28.782Z,99933.09
2023-02-05T19:36:31.160Z,99944.41
2023-02-05T19:40:34.832Z,99952.19
2023-02-05T19:44:36.970Z,99950.41
2023-02-05T19:48:38.998Z,99946.91
2023-02-05T19:52:41.003Z,99940.78
2023-02-05T19:56:44.366Z,99942.44
2023-02-05T20:00:46.372Z,99938.00
2023-02-05T20:04:48.410Z,99946.59
2023-02-05T20:08:50.912Z,99953.53
2023-02-05T20:12:53.136Z,99957.91
2023-02-05T20:16:55.145Z,99957.84
2023-02-05T20:20:57.297Z,99955.28
2023-02-05T20:24:59.297Z,99976.78
2023-02-05T20:29:19.970Z,99977.53
2023-02-05T20:33:21.953Z,99980.84
2023-02-05T20:37:24.134Z,99974.75
2023-02-05T20:41:26.583Z,99983.44
2023-02-05T20:45:28.914Z,99991.06
2023-02-05T20:49:30.899Z,99977.06
2023-02-05T20:53:33.165Z,99985.63
2023-02-05T20:57:35.182Z,99988.09
2023-02-05T21:01:39.506Z,99997.69
2023-02-05T21:05:41.568Z,100005.41
2023-02-05T21:09:43.598Z,99996.03
2023-02-05T21:13:47.229Z,100007.41
2023-02-05T21:17:49.213Z,100007.47
2023-02-05T21:21:52.118Z,100012.72
2023-02-05T21:25:54.132Z,100010.91
2023-02-05T21:29:56.172Z,100016.84
2023-02-05T21:33:58.193Z,100014.22
2023-02-05T21:38:00.199Z,100025.41
2023-02-05T21:42:02.209Z,100035.69
2023-02-05T21:46:06.676Z,100036.47
2023-02-05T21:50:08.958Z,100035.53
2023-02-05T21:54:11.662Z,100047.59
2023-02-05T21:58:13.670Z,100057.91
2023-02-05T22:02:15.880Z,100057.00
2023-02-05T22:06:19.206Z,100060.41
2023-02-05T22:10:21.224Z,100065.53
2023-02-05T22:14:23.961Z,100083.66
2023-02-05T22:18:25.986Z,100093.16
2023-02-05T22:22:28.024Z,100100.13
2023-02-05T22:26:35.776Z,100087.09
2023-02-05T22:30:37.896Z,100083.72
2023-02-05T22:34:42.580Z,100100.06
2023-02-05T22:38:45.843Z,100088.69
2023-02-05T22:42:47.859Z,100103.38
2023-02-05T22:46:49.906Z,100105.09
2023-02-05T22:50:51.909Z,100115.41
2023-02-05T22:54:53.941Z,100130.28
2023-02-05T22:58:56.958Z,100110.38
2023-02-05T23:03:00.224Z,100121.78
2023-02-05T23:07:02.299Z,100115.84
2023-02-05T23:11:10.231Z,100117.31
2023-02-05T23:15:12.678Z,100115.56
2023-02-05T23:19:18.509Z,100110.28
2023-02-05T23:23:20.646Z,100107.66
2023-02-05T23:27:22.728Z,100100.00
2023-02-05T23:31:25.609Z,100105.19
2023-02-05T23:35:27.675Z,100096.47
2023-02-05T23:39:29.676Z,100097.41
2023-02-05T23:43:34.195Z,100106.00
2023-02-05T23:47:37.076Z,100098.19
2023-02-05T23:51:39.568Z,100099.72
2023-02-05T23:55:43.549Z,100099.72
2023-02-05T23:59:45.564Z,100093.69
